createdAt,value
2018-01-11T00:01:59.924Z,19.65
2018-01-11T00:04:27.651Z,17.85
2018-01-11T00:06:55.365Z,18.00
2018-01-11T00:09:23.077Z,16.50
2018-01-11T00:11:50.793Z,17.52
2018-01-11T00:14:18.508Z,16.62
2018-01-11T00:16:46.220Z,23.60
2018-01-11T00:19:13.937Z,18.45
2018-01-11T00:21:41.649Z,18.48
2018-01-11T00:24:09.369Z,19.27
2018-01-11T00:26:37.077Z,20.10
2018-01-11T00:29:04.794Z,17.37
2018-01-11T00:31:32.509Z,17.85
2018-01-11T00:34:00.222Z,21.33
2018-01-11T00:36:27.940Z,18.30
2018-01-11T00:38:55.654Z,18.37
2018-01-11T00:41:23.369Z,22.45
2018-01-11T00:43:51.082Z,22.62
2018-01-11T00:46:18.804Z,19.67
2018-01-11T00:48:47.305Z,20.02
2018-01-11T00:51:15.801Z,18.75
2018-01-11T00:53:43.526Z,17.73
2018-01-11T00:56:11.244Z,23.02
2018-01-11T00:58:38.960Z,18.95
2018-01-11T01:01:07.441Z,20.62
2018-01-11T01:03:35.924Z,26.48
2018-01-11T01:06:04.419Z,24.02
2018-01-11T01:08:32.897Z,24.42
2018-01-11T01:11:01.378Z,24.08
2018-01-11T01:13:29.865Z,21.60
2018-01-11T01:15:58.345Z,21.40
2018-01-11T01:18:26.830Z,21.80
2018-01-11T01:20:54.557Z,27.87
2018-01-11T01:23:22.281Z,22.52
2018-01-11T01:25:50.329Z,24.73
2018-01-11T01:28:18.805Z,26.87
2018-01-11T01:30:47.305Z,23.98
2018-01-11T01:33:15.018Z,25.05
2018-01-11T01:35:42.745Z,23.87
2018-01-11T01:38:10.450Z,22.65
2018-01-11T01:40:38.186Z,21.08
2018-01-11T01:43:05.914Z,28.77
2018-01-11T01:45:34.394Z,28.42
2018-01-11T01:48:02.882Z,25.12
2018-01-11T01:50:30.598Z,34.33
2018-01-11T01:52:58.318Z,31.35
2018-01-11T01:55:26.058Z,35.13
2018-01-11T01:57:54.531Z,25.80
2018-01-11T02:00:23.021Z,29.83
2018-01-11T02:02:51.501Z,26.83
2018-01-11T02:05:19.992Z,26.80
2018-01-11T02:07:48.470Z,25.40
2018-01-11T02:10:16.953Z,23.27
2018-01-11T02:12:45.450Z,26.62
2018-01-11T02:15:13.201Z,29.52
2018-01-11T02:17:41.677Z,17.90
2018-01-11T02:20:10.205Z,22.55
2018-01-11T02:22:37.931Z,23.87
2018-01-11T02:25:06.411Z,23.80
2018-01-11T02:27:34.898Z,26.02
2018-01-11T02:30:03.400Z,22.65
2018-01-11T02:32:31.115Z,21.95
2018-01-11T02:34:58.836Z,21.42
2018-01-11T02:37:26.550Z,19.17
2018-01-11T02:39:54.267Z,24.50
2018-01-11T02:42:21.987Z,26.77
2018-01-11T02:44:50.607Z,25.10
2018-01-11T02:47:18.328Z,25.30
2018-01-11T02:49:46.056Z,23.98
2018-01-11T02:52:13.771Z,27.52
2018-01-11T02:54:42.257Z,30.52
2018-01-11T02:57:10.744Z,24.95
2018-01-11T02:59:38.476Z,34.63
2018-01-11T03:02:06.200Z,31.70
2018-01-11T03:04:33.920Z,29.30
2018-01-11T03:07:02.419Z,27.37
2018-01-11T03:09:30.139Z,28.35
2018-01-11T03:11:57.855Z,24.60
2018-01-11T03:14:25.570Z,25.92
2018-01-11T03:16:53.286Z,26.08
2018-01-11T03:19:21.025Z,25.23
2018-01-11T03:21:49.514Z,26.25
2018-01-11T03:24:17.999Z,27.80
2018-01-11T03:26:46.498Z,27.83
2018-01-11T03:29:14.218Z,27.73
2018-01-11T03:31:41.937Z,28.52
2018-01-11T03:34:09.649Z,27.10
2018-01-11T03:36:37.370Z,27.75
2018-01-11T03:39:05.152Z,23.87
2018-01-11T03:41:32.882Z,30.92
2018-01-11T03:44:00.598Z,31.80
2018-01-11T03:46:28.326Z,32.15
2018-01-11T03:48:56.043Z,30.40
2018-01-11T03:51:24.531Z,35.67
2018-01-11T03:53:53.016Z,28.40
2018-01-11T03:56:21.499Z,34.00
2018-01-11T03:58:49.989Z,29.52
2018-01-11T04:01:17.711Z,27.90
2018-01-11T04:03:45.434Z,27.37
2018-01-11T04:06:13.145Z,21.92
2018-01-11T04:08:40.904Z,29.67
2018-01-11T04:11:08.617Z,33.35
2018-01-11T04:13:36.345Z,31.80
2018-01-11T04:16:04.076Z,30.00
2018-01-11T04:18:31.834Z,29.52
2018-01-11T04:20:59.550Z,26.25
2018-01-11T04:23:28.031Z,28.73
2018-01-11T04:25:56.519Z,26.17
2018-01-11T04:28:25.002Z,25.35
2018-01-11T04:30:53.490Z,30.42
2018-01-11T04:33:21.208Z,23.48
2018-01-11T04:35:48.941Z,24.90
2018-01-11T04:38:16.666Z,27.33
2018-01-11T04:40:45.147Z,28.45
2018-01-11T04:43:13.625Z,31.85
2018-01-11T04:45:42.102Z,28.33
2018-01-11T04:48:09.826Z,33.78
2018-01-11T04:50:37.541Z,29.63
2018-01-11T04:53:06.021Z,28.70
2018-01-11T04:55:34.498Z,32.05
2018-01-11T04:58:02.973Z,28.20
2018-01-11T05:00:30.730Z,24.27
2018-01-11T05:02:58.451Z,34.92
2018-01-11T05:05:26.174Z,35.47
2018-01-11T05:07:54.654Z,28.55
2018-01-11T05:10:23.137Z,30.95
2018-01-11T05:12:51.613Z,30.65
2018-01-11T05:15:19.324Z,30.60
2018-01-11T05:17:47.046Z,24.67
2018-01-11T05:20:15.538Z,28.27
2018-01-11T05:22:44.022Z,24.58
2018-01-11T05:25:12.506Z,24.58
2018-01-11T05:27:40.994Z,27.55
2018-01-11T05:30:08.705Z,28.60
2018-01-11T05:32:36.417Z,28.10
2018-01-11T05:35:04.903Z,24.67
2018-01-11T05:37:32.655Z,27.35
2018-01-11T05:40:01.134Z,24.98
2018-01-11T05:42:29.615Z,23.70
2018-01-11T05:44:58.764Z,24.67
2018-01-11T05:47:26.777Z,26.08
2018-01-11T05:49:54.221Z,32.17
2018-01-11T05:52:21.938Z,31.17
2018-01-11T05:54:49.649Z,39.22
2018-01-11T05:57:17.371Z,38.80
2018-01-11T05:59:45.083Z,47.58
2018-01-11T06:02:12.811Z,54.05
2018-01-11T06:04:40.516Z,51.85
2018-01-11T06:07:08.233Z,55.67
2018-01-11T06:09:35.962Z,44.65
2018-01-11T06:12:04.446Z,56.53
2018-01-11T06:14:32.922Z,52.80
2018-01-11T06:17:01.394Z,52.97
2018-01-11T06:19:29.881Z,44.42
2018-01-11T06:21:58.357Z,39.30
2018-01-11T06:24:26.829Z,30.27
2018-01-11T06:26:54.541Z,28.52
2018-01-11T06:29:22.258Z,26.77
2018-01-11T06:31:49.974Z,27.50
2018-01-11T06:34:17.685Z,23.45
2018-01-11T06:36:45.404Z,25.88
2018-01-11T06:39:13.113Z,22.10
2018-01-11T06:41:40.835Z,25.58
2018-01-11T06:44:08.562Z,24.95
2018-01-11T06:46:37.042Z,21.77
2018-01-11T06:51:39.378Z,25.50
2018-01-11T06:54:07.081Z,24.15
2018-01-11T06:56:35.557Z,21.60
2018-01-11T06:59:03.271Z,20.37
2018-01-11T07:01:30.977Z,24.12
2018-01-11T07:03:58.684Z,22.52
2018-01-11T07:06:26.390Z,20.83
2018-01-11T07:08:54.102Z,21.25
2018-01-11T07:11:21.809Z,22.35
2018-01-11T07:13:49.569Z,24.42
2018-01-11T07:16:17.281Z,20.62
2018-01-11T07:18:45.767Z,24.00
2018-01-11T07:21:14.241Z,33.17
2018-01-11T07:23:42.721Z,34.38
2018-01-11T07:26:11.206Z,35.35
2018-01-11T07:28:39.685Z,32.40
2018-01-11T07:31:08.163Z,42.55
2018-01-11T07:33:36.649Z,40.10
2018-01-11T07:36:05.131Z,43.65
2018-01-11T07:38:33.630Z,51.58
2018-01-11T07:41:01.342Z,59.60
2018-01-11T07:43:29.058Z,40.05
2018-01-11T07:45:56.773Z,35.95
2018-01-11T07:48:24.482Z,30.40
2018-01-11T07:50:52.949Z,26.12
2018-01-11T07:53:21.425Z,28.55
2018-01-11T07:55:49.907Z,21.83
2018-01-11T07:58:18.393Z,34.17
2018-01-11T08:00:46.889Z,35.03
2018-01-11T08:03:15.367Z,38.53
2018-01-11T08:05:43.842Z,32.72
2018-01-11T08:08:12.325Z,29.15
2018-01-11T08:10:40.874Z,25.75
2018-01-11T08:13:08.593Z,33.08
2018-01-11T08:15:36.318Z,26.08
2018-01-11T08:18:04.813Z,21.73
2018-01-11T08:20:33.298Z,25.80
2018-01-11T08:23:01.786Z,22.73
2018-01-11T08:25:30.274Z,22.48
2018-01-11T08:27:58.007Z,20.27
2018-01-11T08:30:25.734Z,24.60
2018-01-11T08:32:53.446Z,20.25
2018-01-11T08:35:21.925Z,19.92
2018-01-11T08:37:49.635Z,20.83
2018-01-11T08:40:17.365Z,20.27
2018-01-11T08:42:45.837Z,21.70
2018-01-11T08:45:14.317Z,18.62
2018-01-11T08:47:42.025Z,19.73
2018-01-11T08:50:09.759Z,19.23
2018-01-11T08:52:38.238Z,17.70
2018-01-11T08:55:06.717Z,17.00
2018-01-11T08:57:35.197Z,19.23
2018-01-11T09:00:03.742Z,20.52
2018-01-11T09:02:31.457Z,21.90
2018-01-11T09:04:59.941Z,16.70
2018-01-11T09:07:27.669Z,27.25
2018-01-11T09:09:55.386Z,14.90
2018-01-11T09:12:23.097Z,17.65
2018-01-11T09:14:50.811Z,16.20
2018-01-11T09:17:18.522Z,20.52
2018-01-11T09:19:46.235Z,18.40
2018-01-11T09:22:13.949Z,16.77
2018-01-11T09:24:41.677Z,17.67
2018-01-11T09:27:09.391Z,15.15
2018-01-11T09:29:37.873Z,17.35
2018-01-11T09:32:05.591Z,21.48
2018-01-11T09:34:33.303Z,17.55
2018-01-11T09:37:01.791Z,14.43
2018-01-11T09:39:30.273Z,14.68
2018-01-11T09:41:58.749Z,20.20
2018-01-11T09:44:27.225Z,19.33
2018-01-11T09:46:54.998Z,14.32
2018-01-11T09:49:23.482Z,17.42
2018-01-11T09:51:51.990Z,13.52
2018-01-11T09:54:19.709Z,20.92
2018-01-11T09:56:47.460Z,14.65
2018-01-11T09:59:15.183Z,19.50
2018-01-11T10:01:42.906Z,16.95
2018-01-11T10:04:10.626Z,13.88
2018-01-11T10:06:38.342Z,14.55
2018-01-11T10:09:06.096Z,16.15
2018-01-11T10:11:33.822Z,12.85
2018-01-11T10:14:01.538Z,22.23
2018-01-11T10:16:30.044Z,16.50
2018-01-11T10:18:57.754Z,10.77
2018-01-11T10:21:25.510Z,13.43
2018-01-11T10:23:53.230Z,15.77
2018-01-11T10:26:20.995Z,14.77
2018-01-11T10:28:48.761Z,17.55
2018-01-11T10:31:16.506Z,14.57
2018-01-11T10:33:44.982Z,16.92
2018-01-11T10:36:12.710Z,14.82
2018-01-11T10:38:40.425Z,14.52
2018-01-11T10:41:08.906Z,15.15
2018-01-11T10:43:37.377Z,14.70
2018-01-11T10:46:05.858Z,13.95
2018-01-11T10:48:34.351Z,15.10
2018-01-11T10:51:02.834Z,16.00
2018-01-11T10:53:31.324Z,13.60
2018-01-11T10:55:59.863Z,20.73
2018-01-11T10:58:27.566Z,18.37
2018-01-11T11:01:01.713Z,14.68
2018-01-11T11:03:29.429Z,15.13
2018-01-11T11:05:57.138Z,15.82
2018-01-11T11:08:24.901Z,13.62
2018-01-11T11:10:52.618Z,14.27
2018-01-11T11:13:20.336Z,14.52
2018-01-11T11:15:48.220Z,15.50
2018-01-11T11:18:16.088Z,14.65
2018-01-11T11:20:43.807Z,11.18
2018-01-11T11:23:11.553Z,13.43
2018-01-11T11:25:40.046Z,12.70
2018-01-11T11:28:08.537Z,12.18
2018-01-11T11:30:36.258Z,16.83
2018-01-11T11:33:04.008Z,14.05
2018-01-11T11:35:31.875Z,14.57
2018-01-11T11:37:59.742Z,16.08
2018-01-11T11:40:27.610Z,20.48
2018-01-11T11:42:55.477Z,17.85
2018-01-11T11:45:23.343Z,16.45
2018-01-11T11:47:51.212Z,18.98
2018-01-11T11:50:19.080Z,13.35
2018-01-11T11:52:46.947Z,13.18
2018-01-11T11:55:14.745Z,16.70
2018-01-11T11:57:42.475Z,19.45
2018-01-11T12:00:10.206Z,16.58
2018-01-11T12:02:37.935Z,14.27
2018-01-11T12:05:05.658Z,11.73
2018-01-11T12:07:33.377Z,17.45
2018-01-11T12:10:01.890Z,11.90
2018-01-11T12:12:29.606Z,15.55
2018-01-11T12:14:57.334Z,16.50
2018-01-11T12:17:25.074Z,13.20
2018-01-11T12:19:52.794Z,11.70
2018-01-11T12:22:20.514Z,20.60
2018-01-11T12:24:48.304Z,21.00
2018-01-11T12:27:16.030Z,14.90
2018-01-11T12:29:43.750Z,25.12
2018-01-11T12:32:11.595Z,16.42
2018-01-11T12:34:39.323Z,14.40
2018-01-11T12:37:07.056Z,16.30
2018-01-11T12:39:35.542Z,15.65
2018-01-11T12:42:04.063Z,19.10
2018-01-11T12:44:31.786Z,15.63
2018-01-11T12:47:00.269Z,17.40
2018-01-11T12:49:28.766Z,14.85
2018-01-11T12:51:57.262Z,18.55
2018-01-11T12:54:25.002Z,19.65
2018-01-11T12:56:53.487Z,20.35
2018-01-11T12:59:21.989Z,18.65
2018-01-11T13:01:49.709Z,17.60
2018-01-11T13:04:17.436Z,17.42
2018-01-11T13:06:45.194Z,16.27
2018-01-11T13:09:12.933Z,17.98
2018-01-11T13:11:40.678Z,14.48
2018-01-11T13:14:08.410Z,15.98
2018-01-11T13:16:36.142Z,16.35
2018-01-11T13:19:03.910Z,15.63
2018-01-11T13:21:31.642Z,16.15
2018-01-11T13:24:00.130Z,17.50
2018-01-11T13:26:28.621Z,19.85
2018-01-11T13:28:57.113Z,17.85
2018-01-11T13:31:24.839Z,17.65
2018-01-11T13:33:52.565Z,16.85
2018-01-11T13:36:20.289Z,19.23
2018-01-11T13:38:48.826Z,17.87
2018-01-11T13:41:16.589Z,18.27
2018-01-11T13:43:44.458Z,15.82
2018-01-11T13:46:12.324Z,17.17
2018-01-11T13:48:40.192Z,19.33
2018-01-11T13:51:08.059Z,19.65
2018-01-11T13:53:35.927Z,25.42
2018-01-11T13:56:03.794Z,19.48
2018-01-11T13:58:31.662Z,21.73
2018-01-11T14:00:59.529Z,18.62
2018-01-11T14:03:27.326Z,22.70
2018-01-11T14:05:55.056Z,19.90
2018-01-11T14:08:22.777Z,19.48
2018-01-11T14:10:50.507Z,21.27
2018-01-11T14:13:18.348Z,16.98
2018-01-11T14:15:46.221Z,22.73
2018-01-11T14:18:14.087Z,22.90
2018-01-11T14:20:41.955Z,21.10
2018-01-11T14:23:09.822Z,24.33
2018-01-11T14:25:37.690Z,17.08
2018-01-11T14:28:05.560Z,19.25
2018-01-11T14:30:33.430Z,19.30
2018-01-11T14:33:01.304Z,21.58
2018-01-11T14:35:29.159Z,21.05
2018-01-11T14:37:57.027Z,19.20
2018-01-11T14:40:24.894Z,21.60
2018-01-11T14:42:52.761Z,17.42
2018-01-11T14:45:20.631Z,22.77
2018-01-11T14:47:48.496Z,22.00
2018-01-11T14:50:16.229Z,19.75
2018-01-11T14:52:43.998Z,24.33
2018-01-11T14:55:11.722Z,24.60
2018-01-11T14:57:40.217Z,21.48
2018-01-11T15:00:08.721Z,23.58
2018-01-11T15:02:36.446Z,21.10
2018-01-11T15:05:04.949Z,22.10
2018-01-11T15:07:33.454Z,21.77
2018-01-11T15:10:01.170Z,27.65
2018-01-11T15:12:28.889Z,31.70
2018-01-11T15:14:56.622Z,26.58
2018-01-11T15:17:25.122Z,27.23
2018-01-11T15:19:52.842Z,27.35
2018-01-11T15:22:20.686Z,23.05
2018-01-11T15:24:48.553Z,27.15
2018-01-11T15:27:16.421Z,27.37
2018-01-11T15:29:44.289Z,27.75
2018-01-11T15:32:12.156Z,26.70
2018-01-11T15:34:40.024Z,26.15
2018-01-11T15:37:07.891Z,28.60
2018-01-11T15:39:35.756Z,26.35
2018-01-11T15:42:03.625Z,26.87
2018-01-11T15:44:31.504Z,26.90
2018-01-11T15:46:59.360Z,24.90
2018-01-11T15:49:27.226Z,27.62
2018-01-11T15:51:55.095Z,29.92
2018-01-11T15:54:22.961Z,22.42
2018-01-11T15:56:50.828Z,30.65
2018-01-11T15:59:18.698Z,27.95
2018-01-11T16:01:46.609Z,28.02
2018-01-11T16:04:15.249Z,23.95
2018-01-11T16:06:43.117Z,25.20
2018-01-11T16:09:10.987Z,22.73
2018-01-11T16:11:38.852Z,21.75
2018-01-11T16:14:06.721Z,22.60
2018-01-11T16:16:34.586Z,24.33
2018-01-11T16:19:02.454Z,26.27
2018-01-11T16:21:30.321Z,26.25
2018-01-11T16:23:58.188Z,23.92
2018-01-11T16:26:25.953Z,22.80
2018-01-11T16:28:53.821Z,25.48
2018-01-11T16:31:21.688Z,25.83
2018-01-11T16:33:49.556Z,23.23
2018-01-11T16:36:17.425Z,21.17
2018-01-11T16:38:45.290Z,23.60
2018-01-11T16:41:13.159Z,28.02
2018-01-11T16:43:41.024Z,22.80
2018-01-11T16:46:09.199Z,22.02
2018-01-11T16:48:37.069Z,25.75
2018-01-11T16:51:04.935Z,28.67
2018-01-11T16:53:32.802Z,18.98
2018-01-11T16:56:00.668Z,20.80
2018-01-11T16:58:28.536Z,27.90
2018-01-11T17:00:56.403Z,21.55
2018-01-11T17:03:24.270Z,24.35
2018-01-11T17:05:52.037Z,19.58
2018-01-11T17:08:19.902Z,24.95
2018-01-11T17:10:47.770Z,26.75
2018-01-11T17:13:15.638Z,22.30
2018-01-11T17:15:43.505Z,32.90
2018-01-11T17:18:12.654Z,34.00
2018-01-11T17:20:43.202Z,34.75
2018-01-11T17:23:13.000Z,25.08
2018-01-11T17:25:42.604Z,29.33
2018-01-11T17:28:11.238Z,21.77
2018-01-11T17:30:39.106Z,25.98
2018-01-11T17:33:06.973Z,23.98
2018-01-11T17:35:34.840Z,31.58
2018-01-11T17:38:02.604Z,27.52
2018-01-11T17:40:30.471Z,20.27
2018-01-11T17:42:58.339Z,24.33
2018-01-11T17:45:26.207Z,21.58
2018-01-11T17:47:54.074Z,24.63
2018-01-11T17:50:21.941Z,17.92
2018-01-11T17:52:49.809Z,19.90
2018-01-11T17:55:17.677Z,25.60
2018-01-11T17:57:45.544Z,21.77
2018-01-11T18:00:13.411Z,24.05
2018-01-11T18:02:41.282Z,20.98
2018-01-11T18:05:09.147Z,23.33
2018-01-11T18:07:37.012Z,21.83
2018-01-11T18:10:04.882Z,21.20
2018-01-11T18:12:32.748Z,21.62
2018-01-11T18:15:00.617Z,20.50
2018-01-11T18:17:28.484Z,18.10
2018-01-11T18:19:56.350Z,21.12
2018-01-11T18:22:24.217Z,22.25
2018-01-11T18:24:52.084Z,20.08
2018-01-11T18:27:19.955Z,21.73
2018-01-11T18:29:47.818Z,19.58
2018-01-11T18:32:15.686Z,17.95
2018-01-11T18:34:43.553Z,22.13
2018-01-11T18:37:11.420Z,19.42
2018-01-11T18:39:39.295Z,19.98
2018-01-11T18:42:07.155Z,16.25
2018-01-11T18:44:35.022Z,21.00
2018-01-11T18:47:02.890Z,21.85
2018-01-11T18:49:30.757Z,23.77
2018-01-11T18:51:58.624Z,19.08
2018-01-11T18:54:26.493Z,28.52
2018-01-11T18:56:54.359Z,29.02
2018-01-11T18:59:22.227Z,24.48
2018-01-11T19:01:50.095Z,39.55
2018-01-11T19:04:17.961Z,24.63
2018-01-11T19:06:45.829Z,23.83
2018-01-11T19:09:13.696Z,26.75
2018-01-11T19:11:41.563Z,26.12
2018-01-11T19:14:09.431Z,21.17
2018-01-11T19:16:37.299Z,19.92
2018-01-11T19:19:05.167Z,31.42
2018-01-11T19:21:33.034Z,26.85
2018-01-11T19:24:00.900Z,27.60
2018-01-11T19:26:28.767Z,23.17
2018-01-11T19:28:56.636Z,25.58
2018-01-11T19:31:24.502Z,26.15
2018-01-11T19:33:52.377Z,23.65
2018-01-11T19:36:20.236Z,22.02
2018-01-11T19:38:48.103Z,21.25
2018-01-11T19:41:15.971Z,24.48
2018-01-11T19:43:43.838Z,32.22
2018-01-11T19:46:11.706Z,26.85
2018-01-11T19:48:39.573Z,33.47
2018-01-11T19:51:07.440Z,33.05
2018-01-11T19:53:35.308Z,33.10
2018-01-11T19:56:03.175Z,33.65
2018-01-11T19:58:31.044Z,34.03
2018-01-11T20:00:58.912Z,33.28
2018-01-11T20:03:26.776Z,48.40
2018-01-11T20:05:54.644Z,36.00
2018-01-11T20:08:22.511Z,33.83
2018-01-11T20:10:50.378Z,38.08
2018-01-11T20:13:18.246Z,26.83
2018-01-11T20:15:46.118Z,24.77
2018-01-11T20:18:13.981Z,24.27
2018-01-11T20:20:42.462Z,23.83
2018-01-11T20:23:10.270Z,21.12
2018-01-11T20:25:38.914Z,24.25
2018-01-11T20:28:06.782Z,24.63
2018-01-11T20:30:34.648Z,30.65
2018-01-11T20:33:02.516Z,28.67
2018-01-11T20:35:30.382Z,28.70
2018-01-11T20:37:58.975Z,23.35
2018-01-11T20:40:37.189Z,22.45
2018-01-11T20:43:16.521Z,20.73
2018-01-11T20:45:48.681Z,26.87
2018-01-11T20:48:19.080Z,31.48
2018-01-11T20:50:49.595Z,26.20
2018-01-11T20:53:20.739Z,20.35
2018-01-11T20:55:51.813Z,21.62
2018-01-11T20:58:24.263Z,22.75
2018-01-11T21:00:52.481Z,25.30
2018-01-11T21:03:20.341Z,23.42
2018-01-11T21:05:48.208Z,21.45
2018-01-11T21:08:16.077Z,22.00
2018-01-11T21:10:43.843Z,26.02
2018-01-11T21:13:11.709Z,23.98
2018-01-11T21:15:39.575Z,21.98
2018-01-11T21:18:07.444Z,22.80
2018-01-11T21:20:35.310Z,22.13
2018-01-11T21:23:03.282Z,22.23
2018-01-11T21:25:31.152Z,25.10
2018-01-11T21:27:59.016Z,26.15
2018-01-11T21:30:26.882Z,20.70
2018-01-11T21:32:54.750Z,22.17
2018-01-11T21:35:22.617Z,21.95
2018-01-11T21:37:50.485Z,26.02
2018-01-11T21:40:18.352Z,22.73
2018-01-11T21:42:46.219Z,29.70
2018-01-11T21:45:14.086Z,29.80
2018-01-11T21:47:41.954Z,25.75
2018-01-11T21:50:09.813Z,22.80
2018-01-11T21:52:37.688Z,23.08
2018-01-11T21:55:05.556Z,23.58
2018-01-11T21:57:33.422Z,19.98
2018-01-11T22:00:01.322Z,23.52
2018-01-11T22:02:29.977Z,22.87
2018-01-11T22:04:57.843Z,20.58
2018-01-11T22:07:25.712Z,19.70
2018-01-11T22:09:53.578Z,22.85
2018-01-11T22:12:21.446Z,25.52
2018-01-11T22:14:49.314Z,20.45
2018-01-11T22:17:17.180Z,19.00
2018-01-11T22:19:45.048Z,24.50
2018-01-11T22:22:12.916Z,25.42
2018-01-11T22:24:40.782Z,23.95
2018-01-11T22:27:08.652Z,22.25
2018-01-11T22:29:36.518Z,20.75
2018-01-11T22:32:04.385Z,26.98
2018-01-11T22:34:32.252Z,22.80
2018-01-11T22:37:00.119Z,24.52
2018-01-11T22:39:27.987Z,19.02
2018-01-11T22:41:55.854Z,24.98
2018-01-11T22:44:23.722Z,22.75
2018-01-11T22:46:51.588Z,22.50
2018-01-11T22:49:19.456Z,23.02
2018-01-11T22:51:47.332Z,19.58
2018-01-11T22:54:15.190Z,24.50
2018-01-11T22:56:43.059Z,23.98
2018-01-11T22:59:10.924Z,28.90
2018-01-11T23:01:38.793Z,28.15
2018-01-11T23:04:06.659Z,32.38
2018-01-11T23:06:34.542Z,30.30
2018-01-11T23:09:02.497Z,28.95
2018-01-11T23:11:35.830Z,31.05
2018-01-11T23:14:04.478Z,29.23
2018-01-11T23:16:32.345Z,38.70
2018-01-11T23:19:00.212Z,33.53
2018-01-11T23:21:30.796Z,30.95
2018-01-11T23:23:58.815Z,26.67
2018-01-11T23:26:26.682Z,25.67
2018-01-11T23:28:54.549Z,27.92
2018-01-11T23:31:22.416Z,30.90
2018-01-11T23:33:50.284Z,29.42
2018-01-11T23:36:18.151Z,23.35
2018-01-11T23:38:46.023Z,24.77
2018-01-11T23:41:13.886Z,24.15
2018-01-11T23:43:41.753Z,25.80
2018-01-11T23:46:09.620Z,31.17
2018-01-11T23:48:37.417Z,37.25
2018-01-11T23:51:06.072Z,24.60
2018-01-11T23:53:33.940Z,26.42
2018-01-11T23:56:01.807Z,21.25
2018-01-11T23:58:29.675Z,25.02
